sensor_id;sensor_type;location;lat;lon;timestamp;pressure;altitude;pressure_sealevel;temperature;humidity
76086;BME280;64791;0.000;0.000;2023-06-22T00:00:19;94215.34;;;14.25;84.55
76086;BME280;64791;0.000;0.000;2023-06-22T00:02:46;94224.44;;;14.18;85.53
76086;BME280;64791;0.000;0.000;2023-06-22T00:05:12;94223.75;;;14.10;85.50
76086;BME280;64791;0.000;0.000;2023-06-22T00:07:38;94224.75;;;13.98;86.00
76086;BME280;64791;0.000;0.000;2023-06-22T00:10:03;94217.75;;;13.89;86.33
76086;BME280;64791;0.000;0.000;2023-06-22T00:12:29;94225.00;;;13.85;86.38
76086;BME280;64791;0.000;0.000;2023-06-22T00:14:55;94220.75;;;13.84;86.71
76086;BME280;64791;0.000;0.000;2023-06-22T00:17:20;94233.13;;;13.83;86.38
76086;BME280;64791;0.000;0.000;2023-06-22T00:19:46;94227.19;;;13.86;86.52
76086;BME280;64791;0.000;0.000;2023-06-22T00:22:12;94231.84;;;13.84;86.12
76086;BME280;64791;0.000;0.000;2023-06-22T00:24:38;94222.97;;;13.78;86.20
76086;BME280;64791;0.000;0.000;2023-06-22T00:27:03;94221.53;;;13.69;86.61
76086;BME280;64791;0.000;0.000;2023-06-22T00:29:30;94218.22;;;13.71;86.72
76086;BME280;64791;0.000;0.000;2023-06-22T00:31:56;94213.56;;;13.73;86.15
76086;BME280;64791;0.000;0.000;2023-06-22T00:34:21;94215.75;;;13.90;85.52
76086;BME280;64791;0.000;0.000;2023-06-22T00:36:47;94207.94;;;13.96;85.01
76086;BME280;64791;0.000;0.000;2023-06-22T00:39:13;94204.75;;;13.99;84.73
76086;BME280;64791;0.000;0.000;2023-06-22T00:41:38;94211.91;;;14.10;84.08
76086;BME280;64791;0.000;0.000;2023-06-22T00:44:04;94211.72;;;14.15;83.89
76086;BME280;64791;0.000;0.000;2023-06-22T00:46:30;94209.06;;;14.25;83.43
76086;BME280;64791;0.000;0.000;2023-06-22T00:48:56;94212.22;;;14.21;83.95
76086;BME280;64791;0.000;0.000;2023-06-22T00:51:22;94202.22;;;14.26;83.74
76086;BME280;64791;0.000;0.000;2023-06-22T00:53:50;94201.53;;;14.43;82.92
76086;BME280;64791;0.000;0.000;2023-06-22T00:56:17;94188.59;;;14.70;81.82
76086;BME280;64791;0.000;0.000;2023-06-22T00:58:45;94193.22;;;14.92;80.58
76086;BME280;64791;0.000;0.000;2023-06-22T01:01:12;94207.53;;;15.05;80.23
76086;BME280;64791;0.000;0.000;2023-06-22T01:03:39;94209.16;;;15.08;79.84
76086;BME280;64791;0.000;0.000;2023-06-22T01:06:09;94201.88;;;14.96;81.15
76086;BME280;64791;0.000;0.000;2023-06-22T01:08:42;94203.09;;;14.85;81.19
76086;BME280;64791;0.000;0.000;2023-06-22T01:11:16;94196.19;;;14.69;81.63
76086;BME280;64791;0.000;0.000;2023-06-22T01:18:41;94200.44;;;14.46;82.52
76086;BME280;64791;0.000;0.000;2023-06-22T01:21:07;94199.47;;;14.51;82.22
76086;BME280;64791;0.000;0.000;2023-06-22T01:26:06;94204.91;;;14.90;80.26
76086;BME280;64791;0.000;0.000;2023-06-22T01:31:10;94198.56;;;15.15;78.99
76086;BME280;64791;0.000;0.000;2023-06-22T01:33:38;94200.53;;;15.22;78.35
76086;BME280;64791;0.000;0.000;2023-06-22T01:36:04;94200.63;;;15.31;78.04
76086;BME280;64791;0.000;0.000;2023-06-22T01:38:30;94208.06;;;15.29;77.18
76086;BME280;64791;0.000;0.000;2023-06-22T01:40:59;94202.81;;;15.33;76.41
76086;BME280;64791;0.000;0.000;2023-06-22T01:43:26;94201.84;;;15.38;76.11
76086;BME280;64791;0.000;0.000;2023-06-22T01:45:54;94206.59;;;15.45;77.28
76086;BME280;64791;0.000;0.000;2023-06-22T01:48:20;94195.72;;;15.39;77.52
76086;BME280;64791;0.000;0.000;2023-06-22T01:50:46;94208.16;;;15.21;78.91
76086;BME280;64791;0.000;0.000;2023-06-22T01:53:12;94212.94;;;15.03;79.89
76086;BME280;64791;0.000;0.000;2023-06-22T01:55:38;94224.50;;;14.92;80.67
76086;BME280;64791;0.000;0.000;2023-06-22T01:58:03;94209.09;;;14.74;81.44
76086;BME280;64791;0.000;0.000;2023-06-22T02:00:30;94210.69;;;14.60;81.87
76086;BME280;64791;0.000;0.000;2023-06-22T02:02:58;94224.13;;;14.47;82.71
76086;BME280;64791;0.000;0.000;2023-06-22T02:05:26;94228.56;;;14.42;82.61
76086;BME280;64791;0.000;0.000;2023-06-22T02:08:01;94228.97;;;14.38;81.75
76086;BME280;64791;0.000;0.000;2023-06-22T02:10:30;94238.41;;;14.35;82.38
76086;BME280;64791;0.000;0.000;2023-06-22T02:12:57;94233.84;;;14.23;82.94
76086;BME280;64791;0.000;0.000;2023-06-22T02:15:23;94235.03;;;14.12;83.19
76086;BME280;64791;0.000;0.000;2023-06-22T02:17:53;94237.34;;;13.99;83.21
76086;BME280;64791;0.000;0.000;2023-06-22T02:20:18;94238.28;;;13.86;83.36
76086;BME280;64791;0.000;0.000;2023-06-22T02:22:44;94235.75;;;13.73;84.06
76086;BME280;64791;0.000;0.000;2023-06-22T02:25:10;94236.19;;;13.62;83.70
76086;BME280;64791;0.000;0.000;2023-06-22T02:27:35;94234.38;;;13.49;84.48
76086;BME280;64791;0.000;0.000;2023-06-22T02:30:01;94227.34;;;13.41;85.23
76086;BME280;64791;0.000;0.000;2023-06-22T02:32:26;94215.75;;;13.35;85.83
76086;BME280;64791;0.000;0.000;2023-06-22T02:34:52;94216.50;;;13.35;85.63
76086;BME280;64791;0.000;0.000;2023-06-22T02:37:18;94214.81;;;13.40;85.86
76086;BME280;64791;0.000;0.000;2023-06-22T02:39:43;94214.41;;;13.43;86.38
76086;BME280;64791;0.000;0.000;2023-06-22T02:42:09;94212.56;;;13.53;86.61
76086;BME280;64791;0.000;0.000;2023-06-22T02:44:36;94213.03;;;13.67;86.12
76086;BME280;64791;0.000;0.000;2023-06-22T02:47:01;94212.84;;;13.73;86.11
76086;BME280;64791;0.000;0.000;2023-06-22T02:49:27;94216.53;;;13.75;85.61
76086;BME280;64791;0.000;0.000;2023-06-22T02:51:53;94210.59;;;13.79;85.71
76086;BME280;64791;0.000;0.000;2023-06-22T02:54:21;94220.38;;;13.87;85.22
76086;BME280;64791;0.000;0.000;2023-06-22T02:56:48;94220.38;;;13.87;84.92
76086;BME280;64791;0.000;0.000;2023-06-22T02:59:16;94226.47;;;13.86;84.38
76086;BME280;64791;0.000;0.000;2023-06-22T03:01:44;94235.91;;;13.83;84.20
76086;BME280;64791;0.000;0.000;2023-06-22T03:04:23;94239.63;;;13.78;84.07
76086;BME280;64791;0.000;0.000;2023-06-22T03:06:48;94240.19;;;13.76;84.15
76086;BME280;64791;0.000;0.000;2023-06-22T03:09:16;94247.41;;;13.72;84.35
76086;BME280;64791;0.000;0.000;2023-06-22T03:11:42;94254.25;;;13.71;84.56
76086;BME280;64791;0.000;0.000;2023-06-22T03:14:09;94258.50;;;13.72;85.15
76086;BME280;64791;0.000;0.000;2023-06-22T03:16:34;94268.31;;;13.73;85.14
76086;BME280;64791;0.000;0.000;2023-06-22T03:19:00;94260.69;;;13.73;85.04
76086;BME280;64791;0.000;0.000;2023-06-22T03:21:29;94255.91;;;13.74;85.59
76086;BME280;64791;0.000;0.000;2023-06-22T03:23:54;94257.56;;;13.77;85.26
76086;BME280;64791;0.000;0.000;2023-06-22T03:26:20;94253.31;;;13.76;85.96
76086;BME280;64791;0.000;0.000;2023-06-22T03:28:46;94255.34;;;13.75;85.33
76086;BME280;64791;0.000;0.000;2023-06-22T03:31:12;94257.75;;;13.79;85.38
76086;BME280;64791;0.000;0.000;2023-06-22T03:33:39;94260.13;;;13.82;85.68
76086;BME280;64791;0.000;0.000;2023-06-22T03:36:04;94258.44;;;13.87;85.05
76086;BME280;64791;0.000;0.000;2023-06-22T03:38:30;94248.63;;;13.93;86.09
76086;BME280;64791;0.000;0.000;2023-06-22T03:40:56;94242.88;;;13.99;86.15
76086;BME280;64791;0.000;0.000;2023-06-22T03:43:23;94251.16;;;14.06;85.85
76086;BME280;64791;0.000;0.000;2023-06-22T03:45:49;94251.47;;;14.18;85.37
76086;BME280;64791;0.000;0.000;2023-06-22T03:48:15;94251.00;;;14.29;86.01
76086;BME280;64791;0.000;0.000;2023-06-22T03:50:40;94259.66;;;14.41;84.91
76086;BME280;64791;0.000;0.000;2023-06-22T03:53:06;94267.00;;;14.53;84.55
76086;BME280;64791;0.000;0.000;2023-06-22T03:55:33;94273.78;;;14.67;84.20
76086;BME280;64791;0.000;0.000;2023-06-22T03:57:59;94286.41;;;14.85;83.76
76086;BME280;64791;0.000;0.000;2023-06-22T04:00:31;94280.34;;;15.04;83.43
76086;BME280;64791;0.000;0.000;2023-06-22T04:02:57;94290.34;;;15.24;83.21
76086;BME280;64791;0.000;0.000;2023-06-22T04:05:22;94287.94;;;15.45;82.46
76086;BME280;64791;0.000;0.000;2023-06-22T04:07:49;94289.63;;;15.65;82.25
76086;BME280;64791;0.000;0.000;2023-06-22T04:10:15;94290.84;;;15.89;81.71
76086;BME280;64791;0.000;0.000;2023-06-22T04:12:40;94285.00;;;16.12;81.08
76086;BME280;64791;0.000;0.000;2023-06-22T04:15:06;94291.38;;;16.39;80.18
76086;BME280;64791;0.000;0.000;2023-06-22T04:17:32;94288.91;;;16.70;79.29
76086;BME280;64791;0.000;0.000;2023-06-22T04:19:58;94288.63;;;17.02;78.36
76086;BME280;64791;0.000;0.000;2023-06-22T04:22:23;94279.19;;;17.33;76.77
76086;BME280;64791;0.000;0.000;2023-06-22T04:24:49;94276.34;;;17.79;75.09
76086;BME280;64791;0.000;0.000;2023-06-22T04:27:18;94276.19;;;18.15;73.08
76086;BME280;64791;0.000;0.000;2023-06-22T04:29:45;94275.59;;;18.65;71.64
76086;BME280;64791;0.000;0.000;2023-06-22T04:32:16;94268.78;;;19.48;68.43
76086;BME280;64791;0.000;0.000;2023-06-22T04:34:42;94271.38;;;20.52;64.79
76086;BME280;64791;0.000;0.000;2023-06-22T04:37:08;94259.06;;;21.48;61.11
76086;BME280;64791;0.000;0.000;2023-06-22T04:39:34;94246.88;;;22.40;59.02
76086;BME280;64791;0.000;0.000;2023-06-22T04:41:59;94242.09;;;23.06;56.73
76086;BME280;64791;0.000;0.000;2023-06-22T04:44:28;94238.28;;;23.41;55.35
76086;BME280;64791;0.000;0.000;2023-06-22T04:46:55;94240.75;;;24.02;53.99
76086;BME280;64791;0.000;0.000;2023-06-22T04:49:26;94243.03;;;24.49;52.54
76086;BME280;64791;0.000;0.000;2023-06-22T04:51:58;94247.91;;;24.62;52.25
76086;BME280;64791;0.000;0.000;2023-06-22T04:54:24;94241.78;;;25.12;51.64
76086;BME280;64791;0.000;0.000;2023-06-22T04:56:49;94246.88;;;25.78;50.41
76086;BME280;64791;0.000;0.000;2023-06-22T04:59:25;94244.00;;;26.27;48.24
76086;BME280;64791;0.000;0.000;2023-06-22T05:01:56;94239.75;;;26.44;47.77
76086;BME280;64791;0.000;0.000;2023-06-22T05:04:22;94238.34;;;26.62;48.02
76086;BME280;64791;0.000;0.000;2023-06-22T05:06:52;94237.59;;;27.15;46.58
76086;BME280;64791;0.000;0.000;2023-06-22T05:09:18;94245.41;;;27.53;45.64
76086;BME280;64791;0.000;0.000;2023-06-22T05:11:44;94251.88;;;27.95;44.71
76086;BME280;64791;0.000;0.000;2023-06-22T05:14:10;94260.56;;;28.40;43.91
76086;BME280;64791;0.000;0.000;2023-06-22T05:16:36;94270.00;;;28.69;43.41
76086;BME280;64791;0.000;0.000;2023-06-22T05:19:02;94269.25;;;28.68;42.60
76086;BME280;64791;0.000;0.000;2023-06-22T05:21:29;94272.25;;;28.94;42.37
76086;BME280;64791;0.000;0.000;2023-06-22T05:23:55;94277.19;;;29.15;41.89
76086;BME280;64791;0.000;0.000;2023-06-22T05:26:25;94270.13;;;29.40;41.05
76086;BME280;64791;0.000;0.000;2023-06-22T05:28:50;94277.34;;;29.43;40.35
76086;BME280;64791;0.000;0.000;2023-06-22T05:31:16;94282.56;;;29.52;41.49
76086;BME280;64791;0.000;0.000;2023-06-22T05:33:42;94281.47;;;29.63;41.33
76086;BME280;64791;0.000;0.000;2023-06-22T05:36:08;94288.00;;;29.68;41.38
76086;BME280;64791;0.000;0.000;2023-06-22T05:38:35;94281.47;;;29.87;39.81
76086;BME280;64791;0.000;0.000;2023-06-22T05:41:01;94286.94;;;30.30;39.87
76086;BME280;64791;0.000;0.000;2023-06-22T05:43:27;94290.00;;;30.66;39.51
76086;BME280;64791;0.000;0.000;2023-06-22T05:45:52;94282.69;;;30.87;37.96
76086;BME280;64791;0.000;0.000;2023-06-22T05:48:18;94291.69;;;31.05;38.06
76086;BME280;64791;0.000;0.000;2023-06-22T05:50:43;94289.22;;;31.21;37.46
76086;BME280;64791;0.000;0.000;2023-06-22T05:53:09;94290.22;;;31.65;36.66
76086;BME280;64791;0.000;0.000;2023-06-22T05:55:35;94291.84;;;32.08;36.46
76086;BME280;64791;0.000;0.000;2023-06-22T05:58:00;94284.50;;;32.35;35.69
76086;BME280;64791;0.000;0.000;2023-06-22T06:00:26;94285.13;;;32.69;35.62
76086;BME280;64791;0.000;0.000;2023-06-22T06:02:51;94292.91;;;33.06;34.66
76086;BME280;64791;0.000;0.000;2023-06-22T06:05:17;94293.63;;;33.52;34.10
76086;BME280;64791;0.000;0.000;2023-06-22T06:07:44;94297.16;;;34.01;33.35
76086;BME280;64791;0.000;0.000;2023-06-22T06:10:10;94288.88;;;34.27;33.23
76086;BME280;64791;0.000;0.000;2023-06-22T06:12:36;94296.34;;;34.52;32.13
76086;BME280;64791;0.000;0.000;2023-06-22T06:15:02;94286.44;;;34.67;32.90
76086;BME280;64791;0.000;0.000;2023-06-22T06:17:27;94291.81;;;35.03;32.19
76086;BME280;64791;0.000;0.000;2023-06-22T06:19:53;94294.13;;;35.25;31.59
76086;BME280;64791;0.000;0.000;2023-06-22T06:22:18;94294.34;;;35.49;32.62
76086;BME280;64791;0.000;0.000;2023-06-22T06:24:46;94293.06;;;35.78;31.17
76086;BME280;64791;0.000;0.000;2023-06-22T06:27:13;94279.53;;;35.99;31.16
76086;BME280;64791;0.000;0.000;2023-06-22T06:29:39;94285.38;;;36.23;31.25
76086;BME280;64791;0.000;0.000;2023-06-22T06:32:04;94285.47;;;36.57;30.50
76086;BME280;64791;0.000;0.000;2023-06-22T06:34:30;94278.38;;;36.86;30.27
76086;BME280;64791;0.000;0.000;2023-06-22T06:36:55;94284.13;;;36.86;29.83
76086;BME280;64791;0.000;0.000;2023-06-22T06:39:21;94280.50;;;37.06;29.64
76086;BME280;64791;0.000;0.000;2023-06-22T06:41:47;94279.06;;;37.23;29.28
76086;BME280;64791;0.000;0.000;2023-06-22T06:44:14;94270.44;;;37.59;28.54
76086;BME280;64791;0.000;0.000;2023-06-22T06:46:40;94272.56;;;37.65;29.25
76086;BME280;64791;0.000;0.000;2023-06-22T06:49:07;94278.31;;;37.85;27.97
76086;BME280;64791;0.000;0.000;2023-06-22T06:51:32;94277.56;;;37.90;29.86
76086;BME280;64791;0.000;0.000;2023-06-22T06:53:58;94273.94;;;37.98;28.68
76086;BME280;64791;0.000;0.000;2023-06-22T06:56:23;94273.13;;;38.24;29.71
76086;BME280;64791;0.000;0.000;2023-06-22T06:58:50;94276.00;;;38.26;28.46
76086;BME280;64791;0.000;0.000;2023-06-22T07:01:15;94279.56;;;38.34;28.48
76086;BME280;64791;0.000;0.000;2023-06-22T07:03:41;94274.69;;;37.84;28.85
76086;BME280;64791;0.000;0.000;2023-06-22T07:06:07;94271.16;;;37.52;29.03
76086;BME280;64791;0.000;0.000;2023-06-22T07:08:33;94268.16;;;38.00;28.90
76086;BME280;64791;0.000;0.000;2023-06-22T07:11:00;94273.34;;;37.31;29.08
76086;BME280;64791;0.000;0.000;2023-06-22T07:13:26;94277.41;;;36.07;31.12
76086;BME280;64791;0.000;0.000;2023-06-22T07:15:51;94280.50;;;35.25;32.49
76086;BME280;64791;0.000;0.000;2023-06-22T07:18:17;94276.31;;;35.40;31.92
76086;BME280;64791;0.000;0.000;2023-06-22T07:20:42;94280.81;;;35.71;31.77
76086;BME280;64791;0.000;0.000;2023-06-22T07:23:08;94268.72;;;35.91;30.25
76086;BME280;64791;0.000;0.000;2023-06-22T07:25:34;94272.53;;;36.52;31.27
76086;BME280;64791;0.000;0.000;2023-06-22T07:28:03;94260.38;;;37.34;30.00
76086;BME280;64791;0.000;0.000;2023-06-22T07:30:30;94260.28;;;37.86;28.48
76086;BME280;64791;0.000;0.000;2023-06-22T07:32:56;94254.53;;;37.66;26.74
76086;BME280;64791;0.000;0.000;2023-06-22T07:35:21;94254.44;;;38.15;26.43
76086;BME280;64791;0.000;0.000;2023-06-22T07:37:47;94242.72;;;38.45;26.41
76086;BME280;64791;0.000;0.000;2023-06-22T07:40:13;94251.63;;;37.88;27.71
76086;BME280;64791;0.000;0.000;2023-06-22T07:42:38;94256.72;;;37.78;28.04
76086;BME280;64791;0.000;0.000;2023-06-22T07:45:04;94263.25;;;37.50;28.34
76086;BME280;64791;0.000;0.000;2023-06-22T07:47:31;94263.75;;;38.23;28.31
76086;BME280;64791;0.000;0.000;2023-06-22T07:50:00;94267.75;;;39.66;26.31
76086;BME280;64791;0.000;0.000;2023-06-22T07:52:26;94266.63;;;40.05;25.75
76086;BME280;64791;0.000;0.000;2023-06-22T07:54:52;94271.66;;;40.64;24.39
76086;BME280;64791;0.000;0.000;2023-06-22T07:57:18;94270.50;;;41.40;22.57
76086;BME280;64791;0.000;0.000;2023-06-22T07:59:44;94271.47;;;42.06;22.87
76086;BME280;64791;0.000;0.000;2023-06-22T08:02:09;94259.28;;;42.00;22.74
76086;BME280;64791;0.000;0.000;2023-06-22T08:04:35;94258.94;;;42.18;20.79
76086;BME280;64791;0.000;0.000;2023-06-22T08:07:01;94256.97;;;42.76;20.59
76086;BME280;64791;0.000;0.000;2023-06-22T08:09:29;94255.13;;;43.24;21.14
76086;BME280;64791;0.000;0.000;2023-06-22T08:11:55;94255.91;;;42.91;20.38
76086;BME280;64791;0.000;0.000;2023-06-22T08:14:22;94246.66;;;43.71;19.29
76086;BME280;64791;0.000;0.000;2023-06-22T08:16:48;94255.28;;;44.02;19.39
76086;BME280;64791;0.000;0.000;2023-06-22T08:19:14;94246.66;;;43.98;19.83
76086;BME280;64791;0.000;0.000;2023-06-22T08:21:39;94247.84;;;44.33;19.63
76086;BME280;64791;0.000;0.000;2023-06-22T08:24:05;94245.94;;;44.24;18.43
76086;BME280;64791;0.000;0.000;2023-06-22T08:26:32;94253.69;;;44.07;19.08
76086;BME280;64791;0.000;0.000;2023-06-22T08:29:01;94247.91;;;44.56;18.49
76086;BME280;64791;0.000;0.000;2023-06-22T08:31:27;94242.75;;;44.07;18.10
76086;BME280;64791;0.000;0.000;2023-06-22T08:33:52;94227.13;;;43.94;17.94
76086;BME280;64791;0.000;0.000;2023-06-22T08:36:18;94222.47;;;43.52;18.45
76086;BME280;64791;0.000;0.000;2023-06-22T08:38:44;94219.31;;;43.88;19.77
76086;BME280;64791;0.000;0.000;2023-06-22T08:41:10;94219.50;;;43.80;19.68
76086;BME280;64791;0.000;0.000;2023-06-22T08:43:35;94222.88;;;43.07;20.10
76086;BME280;64791;0.000;0.000;2023-06-22T08:46:01;94232.91;;;41.36;22.01
76086;BME280;64791;0.000;0.000;2023-06-22T08:48:28;94235.28;;;40.28;23.59
76086;BME280;64791;0.000;0.000;2023-06-22T08:50:53;94239.53;;;41.31;22.84
76086;BME280;64791;0.000;0.000;2023-06-22T08:53:19;94236.84;;;41.98;21.46
76086;BME280;64791;0.000;0.000;2023-06-22T08:55:44;94230.09;;;42.44;21.74
76086;BME280;64791;0.000;0.000;2023-06-22T08:58:10;94229.28;;;43.11;20.31
76086;BME280;64791;0.000;0.000;2023-06-22T09:00:36;94231.47;;;43.40;21.17
76086;BME280;64791;0.000;0.000;2023-06-22T09:03:02;94221.75;;;43.51;21.25
76086;BME280;64791;0.000;0.000;2023-06-22T09:05:28;94223.84;;;42.95;19.45
76086;BME280;64791;0.000;0.000;2023-06-22T09:07:55;94222.38;;;42.66;21.24
76086;BME280;64791;0.000;0.000;2023-06-22T09:10:21;94223.13;;;42.95;21.19
76086;BME280;64791;0.000;0.000;2023-06-22T09:12:46;94218.66;;;42.69;19.29
76086;BME280;64791;0.000;0.000;2023-06-22T09:15:12;94218.94;;;43.18;20.56
76086;BME280;64791;0.000;0.000;2023-06-22T09:17:38;94225.53;;;41.84;20.75
76086;BME280;64791;0.000;0.000;2023-06-22T09:20:04;94225.97;;;41.99;21.02
76086;BME280;64791;0.000;0.000;2023-06-22T09:22:31;94227.47;;;42.65;20.86
76086;BME280;64791;0.000;0.000;2023-06-22T09:24:57;94216.84;;;42.84;20.52
76086;BME280;64791;0.000;0.000;2023-06-22T09:27:23;94221.03;;;41.91;18.72
76086;BME280;64791;0.000;0.000;2023-06-22T09:29:49;94225.78;;;42.07;19.35
76086;BME280;64791;0.000;0.000;2023-06-22T09:32:15;94212.09;;;42.38;20.76
76086;BME280;64791;0.000;0.000;2023-06-22T09:34:41;94214.16;;;42.43;19.98
76086;BME280;64791;0.000;0.000;2023-06-22T09:37:06;94208.19;;;42.82;20.57
76086;BME280;64791;0.000;0.000;2023-06-22T09:39:32;94206.94;;;42.73;19.61
76086;BME280;64791;0.000;0.000;2023-06-22T09:41:58;94214.19;;;42.74;20.74
76086;BME280;64791;0.000;0.000;2023-06-22T09:44:24;94215.41;;;42.53;20.82
76086;BME280;64791;0.000;0.000;2023-06-22T09:46:50;94215.75;;;42.36;20.99
76086;BME280;64791;0.000;0.000;2023-06-22T09:49:16;94214.19;;;42.41;21.38
76086;BME280;64791;0.000;0.000;2023-06-22T09:51:41;94205.31;;;42.15;22.24
76086;BME280;64791;0.000;0.000;2023-06-22T09:54:07;94205.81;;;42.27;21.70
76086;BME280;64791;0.000;0.000;2023-06-22T09:56:32;94206.56;;;42.26;21.42
76086;BME280;64791;0.000;0.000;2023-06-22T09:58:58;94213.41;;;42.10;20.92
76086;BME280;64791;0.000;0.000;2023-06-22T10:01:23;94217.38;;;41.56;22.44
76086;BME280;64791;0.000;0.000;2023-06-22T10:03:51;94212.03;;;39.77;20.53
76086;BME280;64791;0.000;0.000;2023-06-22T10:06:19;94204.34;;;40.14;23.15
76086;BME280;64791;0.000;0.000;2023-06-22T10:08:45;94200.84;;;40.08;23.79
76086;BME280;64791;0.000;0.000;2023-06-22T10:11:11;94196.56;;;40.03;23.43
76086;BME280;64791;0.000;0.000;2023-06-22T10:13:36;94188.03;;;39.93;23.96
76086;BME280;64791;0.000;0.000;2023-06-22T10:16:02;94182.03;;;39.48;21.45
76086;BME280;64791;0.000;0.000;2023-06-22T10:18:28;94191.25;;;39.63;25.16
76086;BME280;64791;0.000;0.000;2023-06-22T10:20:53;94191.19;;;39.69;24.86
76086;BME280;64791;0.000;0.000;2023-06-22T10:23:19;94189.19;;;38.72;24.41
76086;BME280;64791;0.000;0.000;2023-06-22T10:25:45;94190.00;;;38.64;25.21
76086;BME280;64791;0.000;0.000;2023-06-22T10:28:11;94187.59;;;37.64;25.64
76086;BME280;64791;0.000;0.000;2023-06-22T10:30:38;94186.25;;;37.32;22.58
76086;BME280;64791;0.000;0.000;2023-06-22T10:33:04;94183.78;;;38.11;25.77
76086;BME280;64791;0.000;0.000;2023-06-22T10:35:29;94178.22;;;37.71;25.43
76086;BME280;64791;0.000;0.000;2023-06-22T10:37:55;94179.50;;;38.02;26.35
76086;BME280;64791;0.000;0.000;2023-06-22T10:40:21;94177.28;;;38.21;27.09
76086;BME280;64791;0.000;0.000;2023-06-22T10:42:47;94172.94;;;38.24;26.80
76086;BME280;64791;0.000;0.000;2023-06-22T10:45:12;94177.88;;;38.40;27.16
76086;BME280;64791;0.000;0.000;2023-06-22T10:47:39;94174.19;;;38.57;23.98
76086;BME280;64791;0.000;0.000;2023-06-22T10:50:04;94171.88;;;38.72;25.57
76086;BME280;64791;0.000;0.000;2023-06-22T10:52:32;94171.19;;;38.67;26.79
76086;BME280;64791;0.000;0.000;2023-06-22T10:54:58;94174.59;;;38.94;26.33
76086;BME280;64791;0.000;0.000;2023-06-22T10:57:24;94169.41;;;39.09;24.97
76086;BME280;64791;0.000;0.000;2023-06-22T10:59:49;94176.31;;;39.42;24.72
76086;BME280;64791;0.000;0.000;2023-06-22T11:02:15;94170.50;;;39.46;23.65
76086;BME280;64791;0.000;0.000;2023-06-22T11:04:41;94168.16;;;39.61;21.69
76086;BME280;64791;0.000;0.000;2023-06-22T11:07:06;94163.31;;;39.43;23.26
76086;BME280;64791;0.000;0.000;2023-06-22T11:09:32;94161.09;;;39.47;23.56
76086;BME280;64791;0.000;0.000;2023-06-22T11:11:57;94173.09;;;39.70;23.95
76086;BME280;64791;0.000;0.000;2023-06-22T11:14:24;94167.25;;;39.09;24.16
76086;BME280;64791;0.000;0.000;2023-06-22T11:16:50;94161.16;;;39.41;24.10
76086;BME280;64791;0.000;0.000;2023-06-22T11:19:16;94164.38;;;39.09;22.36
76086;BME280;64791;0.000;0.000;2023-06-22T11:21:41;94148.69;;;39.59;22.95
76086;BME280;64791;0.000;0.000;2023-06-22T11:24:07;94155.97;;;38.79;22.89
76086;BME280;64791;0.000;0.000;2023-06-22T11:26:34;94159.94;;;39.81;24.06
76086;BME280;64791;0.000;0.000;2023-06-22T11:29:00;94161.13;;;40.02;24.08
76086;BME280;64791;0.000;0.000;2023-06-22T11:31:26;94154.81;;;40.43;23.07
76086;BME280;64791;0.000;0.000;2023-06-22T11:33:52;94152.44;;;40.55;23.04
76086;BME280;64791;0.000;0.000;2023-06-22T11:36:17;94150.56;;;40.82;22.56
76086;BME280;64791;0.000;0.000;2023-06-22T11:38:43;94140.25;;;40.93;23.11
76086;BME280;64791;0.000;0.000;2023-06-22T11:41:09;94145.72;;;41.12;22.29
76086;BME280;64791;0.000;0.000;2023-06-22T11:43:35;94147.44;;;41.35;22.13
76086;BME280;64791;0.000;0.000;2023-06-22T11:46:01;94143.22;;;41.30;21.25
76086;BME280;64791;0.000;0.000;2023-06-22T11:48:27;94134.38;;;40.55;20.54
76086;BME280;64791;0.000;0.000;2023-06-22T11:50:53;94129.06;;;40.69;21.37
76086;BME280;64791;0.000;0.000;2023-06-22T11:53:20;94135.06;;;40.57;21.33
76086;BME280;64791;0.000;0.000;2023-06-22T11:55:47;94128.00;;;39.34;21.99
76086;BME280;64791;0.000;0.000;2023-06-22T11:58:12;94135.63;;;38.93;23.19
76086;BME280;64791;0.000;0.000;2023-06-22T12:00:38;94130.22;;;38.51;24.21
76086;BME280;64791;0.000;0.000;2023-06-22T12:03:04;94131.31;;;37.95;25.26
76086;BME280;64791;0.000;0.000;2023-06-22T12:05:29;94128.69;;;37.16;24.53
76086;BME280;64791;0.000;0.000;2023-06-22T12:07:55;94125.91;;;36.90;25.27
76086;BME280;64791;0.000;0.000;2023-06-22T12:10:21;94135.97;;;36.51;25.89
76086;BME280;64791;0.000;0.000;2023-06-22T12:12:47;94130.88;;;36.09;26.86
76086;BME280;64791;0.000;0.000;2023-06-22T12:15:13;94136.56;;;35.81;27.75
76086;BME280;64791;0.000;0.000;2023-06-22T12:17:39;94137.09;;;35.41;30.15
76086;BME280;64791;0.000;0.000;2023-06-22T12:20:05;94134.69;;;34.93;31.00
76086;BME280;64791;0.000;0.000;2023-06-22T12:22:32;94147.91;;;34.40;32.93
76086;BME280;64791;0.000;0.000;2023-06-22T12:24:57;94149.38;;;33.76;35.76
76086;BME280;64791;0.000;0.000;2023-06-22T12:27:23;94139.97;;;33.09;34.27
76086;BME280;64791;0.000;0.000;2023-06-22T12:29:49;94149.75;;;31.69;36.91
76086;BME280;64791;0.000;0.000;2023-06-22T12:32:14;94156.72;;;30.92;39.20
76086;BME280;64791;0.000;0.000;2023-06-22T12:34:41;94153.78;;;30.88;39.77
76086;BME280;64791;0.000;0.000;2023-06-22T12:37:07;94159.09;;;31.02;39.77
76086;BME280;64791;0.000;0.000;2023-06-22T12:39:33;94142.94;;;30.51;39.57
76086;BME280;64791;0.000;0.000;2023-06-22T12:41:58;94148.34;;;30.68;39.73
76086;BME280;64791;0.000;0.000;2023-06-22T12:44:24;94153.63;;;30.23;40.75
76086;BME280;64791;0.000;0.000;2023-06-22T12:46:49;94152.91;;;30.50;40.06
76086;BME280;64791;0.000;0.000;2023-06-22T12:49:15;94150.75;;;30.21;42.25
76086;BME280;64791;0.000;0.000;2023-06-22T12:51:41;94154.50;;;29.74;43.56
76086;BME280;64791;0.000;0.000;2023-06-22T12:54:10;94153.28;;;29.55;43.71
76086;BME280;64791;0.000;0.000;2023-06-22T12:56:36;94150.28;;;29.49;42.92
76086;BME280;64791;0.000;0.000;2023-06-22T12:59:02;94155.03;;;29.66;43.45
76086;BME280;64791;0.000;0.000;2023-06-22T13:01:28;94173.63;;;29.71;44.19
76086;BME280;64791;0.000;0.000;2023-06-22T13:03:55;94173.41;;;29.63;44.02
76086;BME280;64791;0.000;0.000;2023-06-22T13:06:21;94172.63;;;29.61;44.01
76086;BME280;64791;0.000;0.000;2023-06-22T13:08:47;94179.22;;;29.67;43.84
76086;BME280;64791;0.000;0.000;2023-06-22T13:11:12;94175.59;;;29.65;43.09
76086;BME280;64791;0.000;0.000;2023-06-22T13:13:38;94174.78;;;29.86;41.78